An Run Da 2 — BHNX — position and weather

sailwx.info

Track history (hours):
 
Tides and Currents Weather Stations Pressure Air Temp Water Temp Dewpoint Dewpoint Depression Visibility Wind Speed Wind Dir Waves Ship Positions

An Run Da 2

Last reported at 2014-Oct-24 19:20 UTC. Time now 2014-Oct-25 14:42 UTC.
Position N 37°55' E 121°16'.

Length 147 m; draft 5.2 m.

Type: Cargo ship. MMSI: 413360230.

Date/timePositionNaut miles runAvg speedWind from/ knotsBaromVisibWave heightAir tempDewpointWater temp
2014-Oct-24 19:20N 37°55' E 121°16'911.3
2014-Oct-24 18:32N 37°53' E 121°27'1111.7
2014-Oct-24 17:33N 37°50' E 121°41'1311.3
2014-Oct-24 16:23N 37°45' E 121°57'910.6
2014-Oct-24 15:33N 37°44' E 122°08'2310.7
2014-Oct-24 13:24N 37°38' E 122°36'2110.7
2014-Oct-24 11:28N 37°21' E 122°52'1312.7
2014-Oct-24 10:29N 37°09' E 122°53'1213.4
2014-Oct-24 09:33N 36°56' E 122°52'1412.7
2014-Oct-24 08:29N 36°43' E 122°53'3711.7
2014-Oct-24 05:22N 36°06' E 122°51'298 9.3
2014-Oct-22 21:24N 31°13' E 121°48'1112.6
2014-Oct-22 20:33N 31°21' E 121°39'8 8.2
2014-Oct-22 19:34N 31°22' E 121°30'6 6.3
2014-Oct-22 18:33N 31°17' E 121°34'5 5.1
2014-Oct-22 17:33N 31°13' E 121°30'5 5.2
2014-Oct-22 16:32N 31°08' E 121°27'4 4.2
2014-Oct-22 15:28N 31°04' E 121°28'1 0.0
2014-Oct-21 18:26N 31°03' E 121°28'6 5.0
2014-Oct-21 17:14N 31°09' E 121°27'4 5.4
2014-Oct-21 16:32N 31°12' E 121°30'4 4.3
2014-Oct-21 15:32N 31°16' E 121°33'5 5.3
2014-Oct-21 14:33N 31°21' E 121°32'4 3.5
2014-Oct-21 13:33N 31°24' E 121°34'8 8.1
2014-Oct-21 12:32N 31°20' E 121°42'43 8.2
2014-Oct-21 07:19N 31°07' E 122°30'5 0.7
2014-Oct-21 00:24N 31°12' E 122°28'49 5.5
2014-Oct-20 15:28N 32°01' E 122°32'28010.0
2014-Oct-19 11:33N 36°41' E 122°45'1010.0
2014-Oct-19 10:33N 36°51' E 122°45'9 9.4
2014-Oct-19 09:33N 37°00' E 122°46'9 9.0
2014-Oct-19 08:30N 37°10' E 122°46'10 8.8
2014-Oct-19 07:21N 37°20' E 122°46'15 8.3
2014-Oct-19 05:33N 37°34' E 122°39'9 9.2
2014-Oct-19 04:33N 37°40' E 122°31'13 9.7
2014-Oct-19 03:15N 37°48' E 122°18'810.0
2014-Oct-19 02:30N 37°53' E 122°11'2210.0
2014-Oct-19 00:16N 38°05' E 121°48'10 9.8
2014-Oct-18 23:12N 38°12' E 121°37'7 9.8
2014-Oct-18 22:29N 38°16' E 121°30'5210.2
2014-Oct-18 17:24N 38°45' E 120°35'59 9.7
2014-Oct-18 11:19N 39°34' E 119°52'910.0
2014-Oct-18 10:23N 39°42' E 119°48'6 1.9
2014-Oct-18 07:27N 39°48' E 119°47'6 6.2
2014-Oct-18 06:33N 39°52' E 119°42'4 3.9
2014-Oct-18 05:33N 39°56' E 119°40'0 0.0
2014-Oct-18 04:29N 39°56' E 119°40'0 0.0
2014-Oct-18 03:29N 39°56' E 119°40'0 0.0
2014-Oct-18 02:29N 39°56' E 119°40'0 0.0
2014-Oct-18 01:23N 39°56' E 119°40'0 0.0
2014-Oct-18 00:29N 39°56' E 119°40'0 0.0
2014-Oct-17 23:23N 39°56' E 119°40'0 0.0
2014-Oct-17 22:29N 39°56' E 119°40'0 0.0
2014-Oct-17 21:17N 39°56' E 119°40'0 0.0
2014-Oct-17 20:29N 39°56' E 119°40'0 0.3
2014-Oct-17 19:33N 39°56' E 119°40'5 5.2
2014-Oct-17 18:33N 39°51' E 119°44'2 1.7
2014-Oct-17 17:28N 39°51' E 119°46'0 0.0
2014-Oct-17 16:29N 39°51' E 119°46'0 0.0
2014-Oct-17 15:29N 39°51' E 119°46'0 0.0
2014-Oct-17 14:22N 39°51' E 119°46'0 0.0
2014-Oct-17 13:29N 39°51' E 119°46'0 0.0
2014-Oct-17 12:29N 39°51' E 119°46'0 0.0
2014-Oct-17 11:29N 39°51' E 119°46'0 0.0
2014-Oct-17 10:28N 39°51' E 119°46'0 0.0
2014-Oct-17 09:29N 39°51' E 119°46'0 0.0
2014-Oct-17 08:22N 39°51' E 119°46'0 0.0
2014-Oct-17 07:28N 39°51' E 119°46'0 0.0
2014-Oct-17 06:31N 39°51' E 119°46'0 0.0
2014-Oct-17 05:31N 39°51' E 119°46'0 0.0
2014-Oct-17 04:31N 39°51' E 119°46'0 0.0
2014-Oct-17 03:31N 39°51' E 119°46'0 0.0
2014-Oct-17 02:25N 39°51' E 119°46'0 0.0
2014-Oct-17 01:25N 39°51' E 119°46'0 0.1
2014-Oct-17 00:31N 39°51' E 119°46'0 0.0
2014-Oct-16 23:31N 39°51' E 119°46'0 0.0
2014-Oct-16 22:31N 39°51' E 119°46'0 0.0
2014-Oct-16 21:31N 39°51' E 119°46'0 0.0
2014-Oct-16 20:31N 39°51' E 119°46'0 0.0
2014-Oct-16 19:31N 39°51' E 119°46'0 0.0
2014-Oct-16 18:31N 39°51' E 119°46'0 0.0
2014-Oct-16 17:31N 39°51' E 119°46'2 2.1
2014-Oct-16 16:33N 39°49' E 119°47'179 9.9
2014-Oct-15 22:33N 37°44' E 122°31'46 7.2
2014-Oct-15 16:14N 37°01' E 122°53'811.7
2014-Oct-15 15:33N 36°53' E 122°53'1211.8
2014-Oct-15 14:33N 36°42' E 122°52'  
Track history (hours):
 
Tides and Currents Weather Stations Pressure Air Temp Water Temp Dewpoint Dewpoint Depression Visibility Wind Speed Wind Dir Waves Ship Positions

An Run Da 2

Last reported at 2014-Oct-24 19:20 UTC. Time now 2014-Oct-25 14:42 UTC.
Position N 37°55' E 121°16'.

Length 147 m; draft 5.2 m.

Type: Cargo ship. MMSI: 413360230.

Date/timePositionNaut miles runAvg speedWind from/ knotsBaromVisibWave heightAir tempDewpointWater temp
2014-Oct-24 19:20N 37°55' E 121°16'911.3
2014-Oct-24 18:32N 37°53' E 121°27'1111.7
2014-Oct-24 17:33N 37°50' E 121°41'1311.3
2014-Oct-24 16:23N 37°45' E 121°57'910.6
2014-Oct-24 15:33N 37°44' E 122°08'2310.7
2014-Oct-24 13:24N 37°38' E 122°36'2110.7
2014-Oct-24 11:28N 37°21' E 122°52'1312.7
2014-Oct-24 10:29N 37°09' E 122°53'1213.4
2014-Oct-24 09:33N 36°56' E 122°52'1412.7
2014-Oct-24 08:29N 36°43' E 122°53'3711.7
2014-Oct-24 05:22N 36°06' E 122°51'298 9.3
2014-Oct-22 21:24N 31°13' E 121°48'1112.6
2014-Oct-22 20:33N 31°21' E 121°39'8 8.2
2014-Oct-22 19:34N 31°22' E 121°30'6 6.3
2014-Oct-22 18:33N 31°17' E 121°34'5 5.1
2014-Oct-22 17:33N 31°13' E 121°30'5 5.2
2014-Oct-22 16:32N 31°08' E 121°27'4 4.2
2014-Oct-22 15:28N 31°04' E 121°28'1 0.0
2014-Oct-21 18:26N 31°03' E 121°28'6 5.0
2014-Oct-21 17:14N 31°09' E 121°27'4 5.4
2014-Oct-21 16:32N 31°12' E 121°30'4 4.3
2014-Oct-21 15:32N 31°16' E 121°33'5 5.3
2014-Oct-21 14:33N 31°21' E 121°32'4 3.5
2014-Oct-21 13:33N 31°24' E 121°34'8 8.1
2014-Oct-21 12:32N 31°20' E 121°42'43 8.2
2014-Oct-21 07:19N 31°07' E 122°30'5 0.7
2014-Oct-21 00:24N 31°12' E 122°28'49 5.5
2014-Oct-20 15:28N 32°01' E 122°32'28010.0
2014-Oct-19 11:33N 36°41' E 122°45'1010.0
2014-Oct-19 10:33N 36°51' E 122°45'9 9.4
2014-Oct-19 09:33N 37°00' E 122°46'9 9.0
2014-Oct-19 08:30N 37°10' E 122°46'10 8.8
2014-Oct-19 07:21N 37°20' E 122°46'15 8.3
2014-Oct-19 05:33N 37°34' E 122°39'9 9.2
2014-Oct-19 04:33N 37°40' E 122°31'13 9.7
2014-Oct-19 03:15N 37°48' E 122°18'810.0
2014-Oct-19 02:30N 37°53' E 122°11'2210.0
2014-Oct-19 00:16N 38°05' E 121°48'10 9.8
2014-Oct-18 23:12N 38°12' E 121°37'7 9.8
2014-Oct-18 22:29N 38°16' E 121°30'5210.2
2014-Oct-18 17:24N 38°45' E 120°35'59 9.7
2014-Oct-18 11:19N 39°34' E 119°52'910.0
2014-Oct-18 10:23N 39°42' E 119°48'6 1.9
2014-Oct-18 07:27N 39°48' E 119°47'6 6.2
2014-Oct-18 06:33N 39°52' E 119°42'4 3.9
2014-Oct-18 05:33N 39°56' E 119°40'0 0.0
2014-Oct-18 04:29N 39°56' E 119°40'0 0.0
2014-Oct-18 03:29N 39°56' E 119°40'0 0.0
2014-Oct-18 02:29N 39°56' E 119°40'0 0.0
2014-Oct-18 01:23N 39°56' E 119°40'0 0.0
2014-Oct-18 00:29N 39°56' E 119°40'0 0.0
2014-Oct-17 23:23N 39°56' E 119°40'0 0.0
2014-Oct-17 22:29N 39°56' E 119°40'0 0.0
2014-Oct-17 21:17N 39°56' E 119°40'0 0.0
2014-Oct-17 20:29N 39°56' E 119°40'0 0.3
2014-Oct-17 19:33N 39°56' E 119°40'5 5.2
2014-Oct-17 18:33N 39°51' E 119°44'2 1.7
2014-Oct-17 17:28N 39°51' E 119°46'0 0.0
2014-Oct-17 16:29N 39°51' E 119°46'0 0.0
2014-Oct-17 15:29N 39°51' E 119°46'0 0.0
2014-Oct-17 14:22N 39°51' E 119°46'0 0.0
2014-Oct-17 13:29N 39°51' E 119°46'0 0.0
2014-Oct-17 12:29N 39°51' E 119°46'0 0.0
2014-Oct-17 11:29N 39°51' E 119°46'0 0.0
2014-Oct-17 10:28N 39°51' E 119°46'0 0.0
2014-Oct-17 09:29N 39°51' E 119°46'0 0.0
2014-Oct-17 08:22N 39°51' E 119°46'0 0.0
2014-Oct-17 07:28N 39°51' E 119°46'0 0.0
2014-Oct-17 06:31N 39°51' E 119°46'0 0.0
2014-Oct-17 05:31N 39°51' E 119°46'0 0.0
2014-Oct-17 04:31N 39°51' E 119°46'0 0.0
2014-Oct-17 03:31N 39°51' E 119°46'0 0.0
2014-Oct-17 02:25N 39°51' E 119°46'0 0.0
2014-Oct-17 01:25N 39°51' E 119°46'0 0.1
2014-Oct-17 00:31N 39°51' E 119°46'0 0.0
2014-Oct-16 23:31N 39°51' E 119°46'0 0.0
2014-Oct-16 22:31N 39°51' E 119°46'0 0.0
2014-Oct-16 21:31N 39°51' E 119°46'0 0.0
2014-Oct-16 20:31N 39°51' E 119°46'0 0.0
2014-Oct-16 19:31N 39°51' E 119°46'0 0.0
2014-Oct-16 18:31N 39°51' E 119°46'0 0.0
2014-Oct-16 17:31N 39°51' E 119°46'2 2.1
2014-Oct-16 16:33N 39°49' E 119°47'179 9.9
2014-Oct-15 22:33N 37°44' E 122°31'46 7.2
2014-Oct-15 16:14N 37°01' E 122°53'811.7
2014-Oct-15 15:33N 36°53' E 122°53'1211.8
2014-Oct-15 14:33N 36°42' E 122°52'  

Dump ship's entire track history